createdAt,value
2022-09-04T00:01:39.512Z,2.85
2022-09-04T00:04:12.199Z,2.88
2022-09-04T00:06:49.808Z,3.17
2022-09-04T00:09:22.839Z,3.35
2022-09-04T00:12:05.597Z,3.33
2022-09-04T00:14:49.286Z,3.60
2022-09-04T00:17:39.200Z,3.15
2022-09-04T00:20:12.461Z,2.95
2022-09-04T00:23:06.078Z,4.10
2022-09-04T00:25:57.829Z,3.22
2022-09-04T00:28:40.541Z,3.47
2022-09-04T00:31:34.101Z,3.58
2022-09-04T00:34:07.444Z,4.15
2022-09-04T00:36:39.076Z,3.42
2022-09-04T00:39:21.265Z,4.28
2022-09-04T00:42:26.084Z,3.67
2022-09-04T00:45:42.790Z,3.92
2022-09-04T00:48:33.794Z,3.88
2022-09-04T00:51:16.140Z,2.85
2022-09-04T00:54:04.849Z,4.10
2022-09-04T00:56:40.912Z,4.47
2022-09-04T00:59:29.763Z,4.25
2022-09-04T01:02:08.160Z,4.05
2022-09-04T01:04:43.327Z,3.80
2022-09-04T01:07:43.526Z,4.35
2022-09-04T01:10:46.026Z,4.72
2022-09-04T01:13:25.157Z,4.65
2022-09-04T01:16:06.446Z,3.35
2022-09-04T01:18:53.263Z,4.20
2022-09-04T01:21:42.059Z,4.35
2022-09-04T01:24:18.436Z,5.15
2022-09-04T01:27:17.171Z,5.50
2022-09-04T01:29:59.179Z,3.78
2022-09-04T01:35:07.175Z,3.70
2022-09-04T01:37:43.706Z,4.13
2022-09-04T01:40:35.497Z,4.07
2022-09-04T01:43:08.681Z,4.18
2022-09-04T01:45:46.548Z,4.10
2022-09-04T01:48:23.335Z,3.92
2022-09-04T01:50:58.338Z,4.65
2022-09-04T01:53:27.297Z,3.65
2022-09-04T01:56:12.803Z,3.38
2022-09-04T01:58:56.856Z,4.00
2022-09-04T02:01:47.583Z,3.40
2022-09-04T02:04:47.813Z,4.40
2022-09-04T02:07:33.385Z,3.55
2022-09-04T02:10:39.136Z,3.00
2022-09-04T02:13:40.393Z,3.90
2022-09-04T02:16:17.576Z,3.13
2022-09-04T02:18:55.860Z,3.92
2022-09-04T02:21:39.281Z,3.88
2022-09-04T02:24:25.836Z,3.88
2022-09-04T02:27:05.986Z,3.55
2022-09-04T02:29:39.305Z,4.25
2022-09-04T02:32:25.801Z,3.70
2022-09-04T02:35:09.006Z,3.85
2022-09-04T02:37:42.042Z,3.50
2022-09-04T02:40:25.489Z,3.72
2022-09-04T02:42:57.606Z,4.15
2022-09-04T02:45:39.367Z,3.63
2022-09-04T02:48:17.903Z,4.15
2022-09-04T02:51:14.032Z,3.97
2022-09-04T02:53:55.763Z,4.07
2022-09-04T02:56:48.408Z,4.63
2022-09-04T02:59:21.695Z,3.92
2022-09-04T03:02:00.589Z,4.25
2022-09-04T03:04:59.608Z,4.22
2022-09-04T03:07:34.807Z,4.50
2022-09-04T03:10:19.995Z,3.58
2022-09-04T03:12:54.294Z,3.65
2022-09-04T03:15:43.236Z,4.13
2022-09-04T03:18:35.033Z,3.95
2022-09-04T03:21:07.552Z,4.90
2022-09-04T03:23:43.893Z,5.00
2022-09-04T03:26:16.748Z,4.90
2022-09-04T03:29:02.550Z,4.03
2022-09-04T03:31:55.360Z,4.88
2022-09-04T03:34:57.922Z,4.65
2022-09-04T03:38:07.468Z,5.03
2022-09-04T03:40:43.012Z,4.38
2022-09-04T03:43:35.045Z,4.85
2022-09-04T03:46:11.429Z,4.63
2022-09-04T03:49:12.098Z,4.38
2022-09-04T03:52:00.403Z,4.30
2022-09-04T03:54:59.952Z,3.47
2022-09-04T03:57:45.450Z,3.65
2022-09-04T04:00:20.089Z,3.53
2022-09-04T04:03:21.465Z,3.72
2022-09-04T04:06:15.044Z,3.25
2022-09-04T04:09:04.199Z,2.90
2022-09-04T04:11:41.359Z,3.83
2022-09-04T04:14:37.726Z,3.40
2022-09-04T04:17:31.009Z,3.17
2022-09-04T04:20:23.134Z,3.60
2022-09-04T04:23:15.766Z,3.55
2022-09-04T04:25:53.900Z,3.47
2022-09-04T04:29:00.096Z,3.90
2022-09-04T04:32:10.713Z,3.35
2022-09-04T04:34:51.281Z,3.75
2022-09-04T04:37:50.407Z,2.90
2022-09-04T04:40:32.736Z,3.15
2022-09-04T04:43:14.138Z,2.83
2022-09-04T04:45:56.448Z,2.97
2022-09-04T04:49:04.368Z,3.78
2022-09-04T04:51:40.860Z,3.88
2022-09-04T04:54:24.231Z,3.08
2022-09-04T04:56:59.305Z,3.03
2022-09-04T04:59:54.526Z,3.03
2022-09-04T05:02:35.536Z,2.72
2022-09-04T05:07:52.507Z,2.45
2022-09-04T05:10:42.483Z,2.55
2022-09-04T05:13:48.669Z,3.42
2022-09-04T05:16:55.848Z,3.22
2022-09-04T05:20:18.492Z,2.35
2022-09-04T05:23:26.621Z,2.47
2022-09-04T05:26:08.831Z,2.70
2022-09-04T05:28:56.913Z,3.03
2022-09-04T05:31:52.811Z,2.92
2022-09-04T05:34:41.859Z,3.10
2022-09-04T05:37:35.981Z,2.95
2022-09-04T05:40:48.584Z,2.33
2022-09-04T05:43:43.248Z,3.03
2022-09-04T05:46:41.306Z,2.53
2022-09-04T05:49:46.975Z,3.08
2022-09-04T05:52:36.375Z,2.35
2022-09-04T05:55:19.347Z,3.20
2022-09-04T05:58:17.733Z,2.92
2022-09-04T06:01:07.348Z,3.33
2022-09-04T06:04:12.121Z,3.28
2022-09-04T06:07:08.192Z,3.00
2022-09-04T06:09:59.410Z,3.03
2022-09-04T06:12:53.589Z,3.70
2022-09-04T06:16:00.079Z,3.40
2022-09-04T06:18:40.151Z,3.53
2022-09-04T06:31:12.403Z,2.35
2022-09-04T06:34:12.411Z,3.28
2022-09-04T06:36:58.880Z,2.95
2022-09-04T06:39:29.510Z,3.22
2022-09-04T06:42:08.818Z,3.25
2022-09-04T06:44:58.227Z,3.47
2022-09-04T06:48:34.662Z,3.00
2022-09-04T06:51:40.125Z,2.47
2022-09-04T06:54:10.759Z,4.28
2022-09-04T06:56:48.323Z,3.35
2022-09-04T06:59:40.256Z,3.13
2022-09-04T07:02:37.038Z,3.65
2022-09-04T07:05:25.977Z,3.47
2022-09-04T07:08:13.369Z,3.40
2022-09-04T07:10:49.682Z,3.38
2022-09-04T07:13:32.906Z,3.22
2022-09-04T07:16:06.270Z,3.03
2022-09-04T07:19:03.553Z,3.20
2022-09-04T07:21:40.279Z,3.55
2022-09-04T07:24:11.203Z,3.72
2022-09-04T07:27:11.089Z,3.30
2022-09-04T07:30:00.218Z,2.13
2022-09-04T07:32:50.296Z,1.50
2022-09-04T07:35:39.782Z,1.65
2022-09-04T07:38:30.165Z,1.15
2022-09-04T07:41:20.494Z,1.42
2022-09-04T07:43:54.846Z,1.63
2022-09-04T07:50:10.562Z,1.60
2022-09-04T07:52:48.790Z,1.38
2022-09-04T07:55:52.903Z,1.70
2022-09-04T07:58:29.609Z,1.25
2022-09-04T08:01:27.277Z,2.50
2022-09-04T08:04:33.244Z,1.70
2022-09-04T08:07:11.626Z,1.70
2022-09-04T08:13:15.282Z,1.40
2022-09-04T08:15:58.649Z,1.88
2022-09-04T08:18:53.813Z,2.28
2022-09-04T08:21:33.747Z,2.42
2022-09-04T08:24:22.083Z,1.95
2022-09-04T08:27:14.012Z,2.75
2022-09-04T08:30:05.793Z,2.25
2022-09-04T08:32:48.151Z,2.65
2022-09-04T08:35:33.860Z,2.65
2022-09-04T08:38:32.565Z,3.17
2022-09-04T08:41:13.138Z,2.10
2022-09-04T08:44:00.130Z,3.38
2022-09-04T08:46:48.449Z,2.97
2022-09-04T08:49:54.044Z,2.80
2022-09-04T08:53:03.610Z,2.78
2022-09-04T08:55:49.898Z,2.88
2022-09-04T08:58:26.451Z,2.30
2022-09-04T09:01:18.411Z,2.03
2022-09-04T09:04:08.224Z,3.90
2022-09-04T09:06:40.983Z,2.80
2022-09-04T09:09:33.202Z,2.25
2022-09-04T09:12:40.963Z,2.35
2022-09-04T09:18:32.532Z,1.65
2022-09-04T09:21:35.232Z,3.30
2022-09-04T09:24:48.172Z,2.35
2022-09-04T09:27:30.976Z,1.90
2022-09-04T09:30:09.985Z,2.10
2022-09-04T09:32:56.051Z,1.20
2022-09-04T09:35:42.089Z,1.02
2022-09-04T09:38:28.317Z,1.60
2022-09-04T09:41:33.664Z,1.98
2022-09-04T09:44:35.425Z,1.55
2022-09-04T09:47:33.165Z,1.85
2022-09-04T09:50:11.933Z,1.67
2022-09-04T09:55:46.171Z,1.98
2022-09-04T09:58:50.345Z,2.10
2022-09-04T10:01:36.839Z,2.25
2022-09-04T10:04:16.842Z,1.90
2022-09-04T10:07:03.197Z,3.00
2022-09-04T10:09:46.931Z,1.80
2022-09-04T10:12:17.604Z,3.03
2022-09-04T10:14:56.852Z,2.22
2022-09-04T10:17:24.234Z,1.77
2022-09-04T10:20:13.052Z,2.80
2022-09-04T10:22:58.449Z,1.63
2022-09-04T10:25:44.250Z,1.88
2022-09-04T10:28:43.571Z,1.45
2022-09-04T10:31:37.276Z,1.95
2022-09-04T10:34:42.239Z,1.83
2022-09-04T10:37:49.390Z,1.10
2022-09-04T10:40:46.931Z,1.65
2022-09-04T10:43:19.281Z,2.13
2022-09-04T10:45:50.736Z,1.30
2022-09-04T10:48:39.566Z,1.92
2022-09-04T10:51:25.617Z,1.42
2022-09-04T10:54:17.045Z,1.65
2022-09-04T10:57:07.848Z,1.70
2022-09-04T11:00:03.138Z,1.55
2022-09-04T11:03:11.435Z,2.15
2022-09-04T11:05:39.638Z,1.67
2022-09-04T11:11:41.394Z,1.70
2022-09-04T11:14:26.234Z,1.80
2022-09-04T11:17:18.049Z,1.52
2022-09-04T11:20:19.037Z,1.90
2022-09-04T11:23:09.466Z,1.30
2022-09-04T11:26:05.861Z,3.13
2022-09-04T11:29:02.223Z,1.58
2022-09-04T11:31:51.502Z,1.30
2022-09-04T11:34:59.520Z,1.20
2022-09-04T11:38:07.451Z,1.15
2022-09-04T11:41:24.591Z,1.33
2022-09-04T11:44:16.347Z,1.52
2022-09-04T11:47:14.440Z,1.70
2022-09-04T11:49:42.648Z,1.42
2022-09-04T11:52:16.097Z,1.60
2022-09-04T11:54:52.271Z,0.95
2022-09-04T11:57:40.967Z,1.30
2022-09-04T12:00:15.268Z,1.58
2022-09-04T12:03:07.239Z,1.25
2022-09-04T12:05:57.410Z,1.58
2022-09-04T12:08:49.429Z,1.40
2022-09-04T12:11:55.101Z,0.93
2022-09-04T12:14:49.004Z,1.35
2022-09-04T12:20:45.554Z,2.33
2022-09-04T12:23:42.996Z,1.27
2022-09-04T12:26:51.472Z,1.40
2022-09-04T12:30:02.407Z,0.80
2022-09-04T12:32:52.582Z,1.25
2022-09-04T12:35:34.101Z,1.05
2022-09-04T12:41:16.879Z,1.58
2022-09-04T12:43:59.063Z,2.03
2022-09-04T12:46:50.400Z,1.15
2022-09-04T12:49:49.493Z,1.17
2022-09-04T12:53:00.021Z,1.23
2022-09-04T12:55:42.667Z,0.93
2022-09-04T12:58:35.381Z,1.20
2022-09-04T13:01:21.372Z,0.77
2022-09-04T13:04:11.975Z,0.90
2022-09-04T13:07:16.096Z,1.10
2022-09-04T13:10:03.975Z,1.23
2022-09-04T13:12:48.140Z,0.88
2022-09-04T13:15:21.827Z,1.00
2022-09-04T13:18:23.758Z,1.02
2022-09-04T13:21:29.135Z,1.05
2022-09-04T13:24:21.287Z,1.13
2022-09-04T13:27:10.319Z,1.08
2022-09-04T13:29:40.886Z,1.10
2022-09-04T13:32:30.188Z,1.15
2022-09-04T13:35:09.810Z,1.13
2022-09-04T13:37:55.314Z,1.23
2022-09-04T13:40:48.703Z,1.13
2022-09-04T13:43:28.236Z,1.10
2022-09-04T13:46:00.348Z,1.23
2022-09-04T13:48:52.263Z,1.10
2022-09-04T13:51:31.169Z,1.30
2022-09-04T13:57:28.148Z,1.70
2022-09-04T14:00:02.746Z,1.80
2022-09-04T14:02:30.331Z,1.70
2022-09-04T14:05:13.468Z,2.30
2022-09-04T14:07:45.345Z,1.35
2022-09-04T14:10:38.631Z,1.30
2022-09-04T14:13:24.462Z,1.42
2022-09-04T14:16:14.627Z,1.23
2022-09-04T14:18:57.225Z,1.30
2022-09-04T14:21:58.466Z,1.30
2022-09-04T14:25:06.713Z,1.42
2022-09-04T14:27:57.781Z,1.58
2022-09-04T14:30:25.145Z,1.70
2022-09-04T14:33:45.372Z,1.20
2022-09-04T14:38:56.682Z,2.38
2022-09-04T14:41:48.150Z,2.03
2022-09-04T14:44:48.855Z,3.15
2022-09-04T14:47:21.041Z,3.15
2022-09-04T14:49:52.531Z,3.83
2022-09-04T14:52:27.378Z,3.67
2022-09-04T14:54:58.124Z,3.53
2022-09-04T14:58:04.989Z,3.58
2022-09-04T15:03:18.240Z,3.90
2022-09-04T15:06:01.856Z,4.22
2022-09-04T15:08:40.621Z,4.60
2022-09-04T15:11:10.574Z,4.20
2022-09-04T15:13:49.869Z,4.03
2022-09-04T15:16:23.309Z,3.47
2022-09-04T15:19:06.523Z,4.00
2022-09-04T15:21:56.848Z,3.83
2022-09-04T15:24:35.444Z,3.33
2022-09-04T15:27:23.733Z,4.95
2022-09-04T15:29:54.859Z,4.15
2022-09-04T15:32:25.858Z,4.88
2022-09-04T15:35:32.848Z,4.90
2022-09-04T15:38:25.265Z,4.10
2022-09-04T15:41:15.581Z,4.70
2022-09-04T15:44:01.648Z,4.40
2022-09-04T15:46:30.259Z,4.95
2022-09-04T15:49:13.107Z,4.65
2022-09-04T15:51:56.236Z,4.72
2022-09-04T15:54:34.565Z,3.33
2022-09-04T15:57:08.605Z,3.85
2022-09-04T15:59:45.456Z,4.10
2022-09-04T16:02:37.661Z,3.95
2022-09-04T16:05:41.578Z,3.70
2022-09-04T16:14:26.384Z,4.28
2022-09-04T16:17:15.251Z,4.40
2022-09-04T16:19:57.936Z,4.05
2022-09-04T16:22:37.758Z,5.35
2022-09-04T16:25:12.418Z,5.50
2022-09-04T16:27:54.347Z,4.22
2022-09-04T16:35:46.130Z,3.92
2022-09-04T16:38:23.924Z,4.82
2022-09-04T16:41:02.131Z,4.95
2022-09-04T16:43:36.347Z,5.75
2022-09-04T16:46:39.448Z,5.53
2022-09-04T16:49:19.765Z,5.45
2022-09-04T16:52:21.310Z,5.28
2022-09-04T16:55:15.042Z,5.93
2022-09-04T16:58:08.924Z,5.05
2022-09-04T17:01:13.687Z,5.90
2022-09-04T17:04:35.048Z,5.72
2022-09-04T17:07:08.994Z,6.40
2022-09-04T17:10:01.982Z,5.88
2022-09-04T17:12:48.754Z,5.93
2022-09-04T17:15:44.529Z,5.65
2022-09-04T17:18:38.413Z,7.00
2022-09-04T17:27:22.009Z,6.55
2022-09-04T17:29:11.128Z,7.13
2022-09-04T17:31:52.320Z,5.80
2022-09-04T17:40:41.788Z,6.47
2022-09-04T17:40:54.604Z,6.22
2022-09-04T17:41:36.136Z,6.68
2022-09-04T17:48:11.430Z,7.65
2022-09-04T17:51:17.132Z,7.72
2022-09-04T17:53:52.749Z,7.20
2022-09-04T17:56:36.658Z,6.88
2022-09-04T17:59:15.002Z,6.78
2022-09-04T18:01:57.924Z,6.35
2022-09-04T18:04:37.819Z,7.05
2022-09-04T18:07:28.965Z,7.03
2022-09-04T18:10:22.218Z,7.10
2022-09-04T18:13:00.825Z,6.43
2022-09-04T18:15:39.535Z,6.38
2022-09-04T18:18:17.678Z,6.63
2022-09-04T18:21:09.210Z,7.55
2022-09-04T18:24:10.125Z,7.28
2022-09-04T18:26:44.527Z,7.50
2022-09-04T18:30:02.078Z,7.97
2022-09-04T18:37:23.606Z,6.25
2022-09-04T18:37:24.338Z,7.07
2022-09-04T18:38:20.692Z,5.88
2022-09-04T18:43:46.769Z,6.75
2022-09-04T18:50:37.752Z,5.95
2022-09-04T18:53:29.787Z,5.40
2022-09-04T18:56:02.927Z,5.75
2022-09-04T18:58:53.424Z,6.47
2022-09-04T19:01:28.932Z,6.38
2022-09-04T19:04:19.829Z,6.28
2022-09-04T19:07:09.046Z,5.75
2022-09-04T19:09:58.739Z,5.90
2022-09-04T19:12:46.641Z,6.22
2022-09-04T19:15:36.046Z,6.00
2022-09-04T19:18:23.514Z,6.40
2022-09-04T19:24:10.581Z,5.28
2022-09-04T19:26:57.436Z,5.80
2022-09-04T19:29:34.781Z,5.85
2022-09-04T19:32:12.777Z,6.28
2022-09-04T19:34:53.203Z,5.80
2022-09-04T19:42:45.997Z,4.78
2022-09-04T19:45:57.466Z,5.40
2022-09-04T19:46:18.260Z,5.57
2022-09-04T19:47:40.048Z,5.68
2022-09-04T19:53:21.785Z,5.15
2022-09-04T19:53:40.755Z,5.95
2022-09-04T19:57:32.919Z,6.47
2022-09-04T19:59:45.598Z,4.93
2022-09-04T20:02:31.633Z,5.57
2022-09-04T20:05:18.040Z,5.93
2022-09-04T20:08:14.285Z,5.78
2022-09-04T20:11:01.096Z,5.70
2022-09-04T20:13:49.634Z,5.55
2022-09-04T20:16:37.574Z,5.75
2022-09-04T20:19:28.935Z,5.93
2022-09-04T20:22:05.535Z,5.13
2022-09-04T20:25:01.944Z,5.40
2022-09-04T20:27:41.182Z,6.15
2022-09-04T20:30:25.572Z,5.40
2022-09-04T20:33:16.693Z,5.97
2022-09-04T20:38:51.948Z,5.28
2022-09-04T20:41:42.179Z,5.20
2022-09-04T20:44:24.938Z,5.43
2022-09-04T20:52:40.786Z,5.63
2022-09-04T20:53:12.418Z,5.45
2022-09-04T20:57:15.671Z,4.93
2022-09-04T21:03:08.578Z,4.72
2022-09-04T21:03:20.360Z,5.53
2022-09-04T21:05:24.721Z,5.47
2022-09-04T21:08:06.794Z,6.18
2022-09-04T21:11:40.675Z,5.43
2022-09-04T21:14:12.574Z,5.30
2022-09-04T21:17:33.408Z,5.35
2022-09-04T21:20:18.527Z,5.53
2022-09-04T21:23:18.770Z,4.50
2022-09-04T21:26:21.116Z,5.13
2022-09-04T21:29:10.609Z,5.18
2022-09-04T21:32:00.355Z,4.93
2022-09-04T21:34:43.236Z,5.25
2022-09-04T21:37:11.184Z,5.72
2022-09-04T21:39:38.336Z,5.40
2022-09-04T21:42:43.015Z,5.50
2022-09-04T21:45:38.194Z,4.80
2022-09-04T21:48:23.449Z,3.38
2022-09-04T21:51:04.433Z,3.92
2022-09-04T21:53:40.439Z,3.25
2022-09-04T22:02:30.265Z,2.50
2022-09-04T22:02:40.618Z,3.25
2022-09-04T22:02:57.856Z,3.25
2022-09-04T22:05:50.312Z,3.05
2022-09-04T22:13:28.702Z,4.65
2022-09-04T22:13:30.098Z,3.67
2022-09-04T22:14:51.701Z,3.97
2022-09-04T22:17:46.338Z,4.20
2022-09-04T22:20:43.102Z,3.63
2022-09-04T22:23:25.931Z,4.55
2022-09-04T22:26:27.028Z,4.45
2022-09-04T22:29:22.068Z,4.22
2022-09-04T22:32:20.059Z,4.40
2022-09-04T22:35:05.109Z,4.72
2022-09-04T22:37:44.485Z,4.18
2022-09-04T22:40:28.015Z,4.18
2022-09-04T22:42:58.407Z,3.90
2022-09-04T22:45:48.958Z,4.78
2022-09-04T22:48:40.993Z,4.25
2022-09-04T22:51:21.070Z,3.42
2022-09-04T22:54:32.958Z,3.92
2022-09-04T22:57:06.599Z,3.78
2022-09-04T22:59:52.124Z,3.80
2022-09-04T23:03:08.367Z,4.78
2022-09-04T23:05:54.181Z,4.13
2022-09-04T23:13:43.307Z,3.42
2022-09-04T23:13:52.627Z,3.80
2022-09-04T23:15:07.920Z,4.10
2022-09-04T23:23:22.610Z,4.22
2022-09-04T23:26:46.042Z,4.45
2022-09-04T23:26:53.129Z,3.92
2022-09-04T23:27:50.066Z,3.30
2022-09-04T23:30:26.428Z,3.08
2022-09-04T23:33:06.877Z,3.65
2022-09-04T23:36:10.392Z,3.70
2022-09-04T23:39:18.596Z,3.90
2022-09-04T23:42:36.047Z,3.75
2022-09-04T23:46:01.792Z,3.50
2022-09-04T23:49:29.418Z,3.88
2022-09-04T23:52:49.298Z,3.72
2022-09-04T23:56:15.324Z,3.13
2022-09-04T23:59:37.709Z,3.13
